sensor_id;sensor_type;location;lat;lon;timestamp;P1;durP1;ratioP1;P2;durP2;ratioP2
23058;SDS011;30585;51.502;7.218;2022-07-29T00:00:40;1.98;;;1.00;;
23058;SDS011;30585;51.502;7.218;2022-07-29T00:03:10;2.35;;;1.02;;
23058;SDS011;30585;51.502;7.218;2022-07-29T00:05:38;7.63;;;1.20;;
23058;SDS011;30585;51.502;7.218;2022-07-29T00:08:07;2.42;;;1.10;;
23058;SDS011;30585;51.502;7.218;2022-07-29T00:10:38;1.77;;;0.90;;
23058;SDS011;30585;51.502;7.218;2022-07-29T00:13:06;1.90;;;0.90;;
23058;SDS011;30585;51.502;7.218;2022-07-29T00:15:34;3.50;;;1.00;;
23058;SDS011;30585;51.502;7.218;2022-07-29T00:18:03;1.90;;;0.98;;
23058;SDS011;30585;51.502;7.218;2022-07-29T00:20:31;3.55;;;1.10;;
23058;SDS011;30585;51.502;7.218;2022-07-29T00:22:59;1.30;;;0.77;;
23058;SDS011;30585;51.502;7.218;2022-07-29T00:25:27;3.20;;;1.15;;
23058;SDS011;30585;51.502;7.218;2022-07-29T00:27:55;2.53;;;1.23;;
23058;SDS011;30585;51.502;7.218;2022-07-29T00:30:24;2.50;;;0.98;;
23058;SDS011;30585;51.502;7.218;2022-07-29T00:32:51;3.22;;;1.40;;
23058;SDS011;30585;51.502;7.218;2022-07-29T00:35:21;2.40;;;0.90;;
23058;SDS011;30585;51.502;7.218;2022-07-29T00:38:06;2.00;;;1.13;;
23058;SDS011;30585;51.502;7.218;2022-07-29T00:40:34;2.83;;;0.85;;
23058;SDS011;30585;51.502;7.218;2022-07-29T00:43:05;1.63;;;0.98;;
23058;SDS011;30585;51.502;7.218;2022-07-29T00:45:33;5.10;;;1.25;;
23058;SDS011;30585;51.502;7.218;2022-07-29T00:48:01;3.45;;;1.13;;
23058;SDS011;30585;51.502;7.218;2022-07-29T00:50:32;2.83;;;1.08;;
23058;SDS011;30585;51.502;7.218;2022-07-29T00:53:01;3.75;;;1.45;;
23058;SDS011;30585;51.502;7.218;2022-07-29T00:55:30;4.30;;;1.15;;
23058;SDS011;30585;51.502;7.218;2022-07-29T00:57:58;1.83;;;1.10;;
23058;SDS011;30585;51.502;7.218;2022-07-29T01:00:27;2.40;;;1.13;;
23058;SDS011;30585;51.502;7.218;2022-07-29T01:02:56;2.97;;;1.00;;
23058;SDS011;30585;51.502;7.218;2022-07-29T01:05:24;3.10;;;1.10;;
23058;SDS011;30585;51.502;7.218;2022-07-29T01:08:16;2.97;;;1.02;;
23058;SDS011;30585;51.502;7.218;2022-07-29T01:10:45;6.93;;;1.30;;
23058;SDS011;30585;51.502;7.218;2022-07-29T01:13:14;2.88;;;1.08;;
23058;SDS011;30585;51.502;7.218;2022-07-29T01:15:44;5.00;;;1.30;;
23058;SDS011;30585;51.502;7.218;2022-07-29T01:18:16;3.92;;;1.20;;
23058;SDS011;30585;51.502;7.218;2022-07-29T01:20:57;1.50;;;1.08;;
23058;SDS011;30585;51.502;7.218;2022-07-29T01:23:51;5.93;;;1.27;;
23058;SDS011;30585;51.502;7.218;2022-07-29T01:26:34;2.28;;;1.10;;
23058;SDS011;30585;51.502;7.218;2022-07-29T01:29:12;3.30;;;1.30;;
23058;SDS011;30585;51.502;7.218;2022-07-29T01:32:05;5.03;;;1.60;;
23058;SDS011;30585;51.502;7.218;2022-07-29T01:34:54;4.00;;;1.20;;
23058;SDS011;30585;51.502;7.218;2022-07-29T01:37:28;3.08;;;1.20;;
23058;SDS011;30585;51.502;7.218;2022-07-29T01:39:59;3.63;;;1.60;;
23058;SDS011;30585;51.502;7.218;2022-07-29T01:42:32;3.25;;;1.27;;
23058;SDS011;30585;51.502;7.218;2022-07-29T01:45:06;2.72;;;1.17;;
23058;SDS011;30585;51.502;7.218;2022-07-29T01:47:38;3.97;;;1.17;;
23058;SDS011;30585;51.502;7.218;2022-07-29T01:50:12;1.50;;;1.10;;
23058;SDS011;30585;51.502;7.218;2022-07-29T01:52:44;2.53;;;1.10;;
23058;SDS011;30585;51.502;7.218;2022-07-29T01:55:17;4.38;;;1.40;;
23058;SDS011;30585;51.502;7.218;2022-07-29T01:57:49;7.25;;;1.27;;
23058;SDS011;30585;51.502;7.218;2022-07-29T02:00:18;5.43;;;1.42;;
23058;SDS011;30585;51.502;7.218;2022-07-29T02:02:47;5.53;;;1.42;;
23058;SDS011;30585;51.502;7.218;2022-07-29T02:05:18;7.10;;;1.90;;
23058;SDS011;30585;51.502;7.218;2022-07-29T02:07:47;2.03;;;1.20;;
23058;SDS011;30585;51.502;7.218;2022-07-29T02:10:17;4.53;;;1.30;;
23058;SDS011;30585;51.502;7.218;2022-07-29T02:12:51;4.18;;;1.35;;
23058;SDS011;30585;51.502;7.218;2022-07-29T02:15:24;9.00;;;1.95;;
23058;SDS011;30585;51.502;7.218;2022-07-29T02:17:55;2.40;;;1.40;;
23058;SDS011;30585;51.502;7.218;2022-07-29T02:20:27;3.60;;;1.40;;
23058;SDS011;30585;51.502;7.218;2022-07-29T02:22:58;2.83;;;1.33;;
23058;SDS011;30585;51.502;7.218;2022-07-29T02:25:26;2.53;;;1.55;;
23058;SDS011;30585;51.502;7.218;2022-07-29T02:28:04;4.78;;;1.90;;
23058;SDS011;30585;51.502;7.218;2022-07-29T02:30:35;4.82;;;1.50;;
23058;SDS011;30585;51.502;7.218;2022-07-29T02:33:06;2.38;;;1.20;;
23058;SDS011;30585;51.502;7.218;2022-07-29T02:35:36;3.00;;;1.33;;
23058;SDS011;30585;51.502;7.218;2022-07-29T02:38:05;2.58;;;1.13;;
23058;SDS011;30585;51.502;7.218;2022-07-29T02:40:53;1.70;;;0.95;;
23058;SDS011;30585;51.502;7.218;2022-07-29T02:43:24;2.70;;;1.10;;
23058;SDS011;30585;51.502;7.218;2022-07-29T02:45:54;3.80;;;1.10;;
23058;SDS011;30585;51.502;7.218;2022-07-29T02:48:27;6.78;;;1.20;;
23058;SDS011;30585;51.502;7.218;2022-07-29T02:51:05;2.00;;;1.17;;
23058;SDS011;30585;51.502;7.218;2022-07-29T02:53:59;4.57;;;1.33;;
23058;SDS011;30585;51.502;7.218;2022-07-29T02:56:34;2.28;;;1.38;;
23058;SDS011;30585;51.502;7.218;2022-07-29T02:59:04;3.63;;;1.30;;
23058;SDS011;30585;51.502;7.218;2022-07-29T03:01:39;1.73;;;1.33;;
23058;SDS011;30585;51.502;7.218;2022-07-29T03:04:09;1.35;;;1.02;;
23058;SDS011;30585;51.502;7.218;2022-07-29T03:06:40;2.20;;;1.07;;
23058;SDS011;30585;51.502;7.218;2022-07-29T03:09:12;4.35;;;1.35;;
23058;SDS011;30585;51.502;7.218;2022-07-29T03:11:41;1.92;;;1.13;;
23058;SDS011;30585;51.502;7.218;2022-07-29T03:14:16;2.23;;;1.30;;
23058;SDS011;30585;51.502;7.218;2022-07-29T03:16:48;3.92;;;1.35;;
23058;SDS011;30585;51.502;7.218;2022-07-29T03:19:17;4.07;;;1.50;;
23058;SDS011;30585;51.502;7.218;2022-07-29T03:21:46;3.47;;;1.38;;
23058;SDS011;30585;51.502;7.218;2022-07-29T03:24:24;3.05;;;1.17;;
23058;SDS011;30585;51.502;7.218;2022-07-29T03:26:54;3.50;;;1.00;;
23058;SDS011;30585;51.502;7.218;2022-07-29T03:29:22;2.27;;;1.10;;
23058;SDS011;30585;51.502;7.218;2022-07-29T03:31:59;1.45;;;1.23;;
23058;SDS011;30585;51.502;7.218;2022-07-29T03:34:32;1.60;;;1.00;;
23058;SDS011;30585;51.502;7.218;2022-07-29T03:37:00;2.00;;;1.20;;
23058;SDS011;30585;51.502;7.218;2022-07-29T03:39:29;2.53;;;1.23;;
23058;SDS011;30585;51.502;7.218;2022-07-29T03:42:00;1.97;;;1.17;;
23058;SDS011;30585;51.502;7.218;2022-07-29T03:44:29;1.70;;;1.05;;
23058;SDS011;30585;51.502;7.218;2022-07-29T03:47:01;6.88;;;1.40;;
23058;SDS011;30585;51.502;7.218;2022-07-29T03:49:31;2.38;;;1.30;;
23058;SDS011;30585;51.502;7.218;2022-07-29T03:52:03;2.77;;;1.17;;
23058;SDS011;30585;51.502;7.218;2022-07-29T03:54:32;4.47;;;1.10;;
23058;SDS011;30585;51.502;7.218;2022-07-29T03:57:01;4.63;;;1.03;;
23058;SDS011;30585;51.502;7.218;2022-07-29T03:59:30;2.80;;;1.10;;
23058;SDS011;30585;51.502;7.218;2022-07-29T04:02:01;5.53;;;1.50;;
23058;SDS011;30585;51.502;7.218;2022-07-29T04:04:32;2.95;;;1.30;;
23058;SDS011;30585;51.502;7.218;2022-07-29T04:07:00;1.53;;;1.10;;
23058;SDS011;30585;51.502;7.218;2022-07-29T04:09:28;5.03;;;1.10;;
23058;SDS011;30585;51.502;7.218;2022-07-29T04:11:57;3.63;;;1.40;;
23058;SDS011;30585;51.502;7.218;2022-07-29T04:14:29;3.03;;;1.13;;
23058;SDS011;30585;51.502;7.218;2022-07-29T04:16:58;3.53;;;1.08;;
23058;SDS011;30585;51.502;7.218;2022-07-29T04:19:27;2.55;;;1.30;;
23058;SDS011;30585;51.502;7.218;2022-07-29T04:21:56;2.50;;;1.13;;
23058;SDS011;30585;51.502;7.218;2022-07-29T04:24:25;2.47;;;1.47;;
23058;SDS011;30585;51.502;7.218;2022-07-29T04:26:53;2.38;;;1.15;;
23058;SDS011;30585;51.502;7.218;2022-07-29T04:29:21;2.17;;;1.10;;
23058;SDS011;30585;51.502;7.218;2022-07-29T04:31:48;3.00;;;1.03;;
23058;SDS011;30585;51.502;7.218;2022-07-29T04:34:16;4.40;;;1.20;;
23058;SDS011;30585;51.502;7.218;2022-07-29T04:36:46;3.00;;;1.13;;
23058;SDS011;30585;51.502;7.218;2022-07-29T04:39:14;3.10;;;1.13;;
23058;SDS011;30585;51.502;7.218;2022-07-29T04:41:48;2.97;;;1.30;;
23058;SDS011;30585;51.502;7.218;2022-07-29T04:44:20;2.23;;;1.20;;
23058;SDS011;30585;51.502;7.218;2022-07-29T04:46:54;2.50;;;1.25;;
23058;SDS011;30585;51.502;7.218;2022-07-29T04:49:22;5.03;;;1.77;;
23058;SDS011;30585;51.502;7.218;2022-07-29T04:51:51;2.58;;;1.13;;
23058;SDS011;30585;51.502;7.218;2022-07-29T04:54:19;5.68;;;1.40;;
23058;SDS011;30585;51.502;7.218;2022-07-29T04:56:47;5.65;;;1.73;;
23058;SDS011;30585;51.502;7.218;2022-07-29T04:59:15;1.87;;;1.27;;
23058;SDS011;30585;51.502;7.218;2022-07-29T05:01:43;4.90;;;1.60;;
23058;SDS011;30585;51.502;7.218;2022-07-29T05:04:11;6.97;;;2.00;;
23058;SDS011;30585;51.502;7.218;2022-07-29T05:06:39;2.70;;;1.47;;
23058;SDS011;30585;51.502;7.218;2022-07-29T05:09:08;1.73;;;1.40;;
23058;SDS011;30585;51.502;7.218;2022-07-29T05:11:36;4.90;;;1.95;;
23058;SDS011;30585;51.502;7.218;2022-07-29T05:14:04;4.10;;;1.77;;
23058;SDS011;30585;51.502;7.218;2022-07-29T05:16:32;2.50;;;1.50;;
23058;SDS011;30585;51.502;7.218;2022-07-29T05:19:00;5.22;;;1.80;;
23058;SDS011;30585;51.502;7.218;2022-07-29T05:21:28;5.23;;;1.90;;
23058;SDS011;30585;51.502;7.218;2022-07-29T05:23:56;2.92;;;1.42;;
23058;SDS011;30585;51.502;7.218;2022-07-29T05:26:26;2.47;;;1.67;;
23058;SDS011;30585;51.502;7.218;2022-07-29T05:28:53;5.03;;;1.73;;
23058;SDS011;30585;51.502;7.218;2022-07-29T05:31:22;4.90;;;1.77;;
23058;SDS011;30585;51.502;7.218;2022-07-29T05:33:50;4.00;;;1.67;;
23058;SDS011;30585;51.502;7.218;2022-07-29T05:36:18;2.23;;;1.70;;
23058;SDS011;30585;51.502;7.218;2022-07-29T05:38:46;1.70;;;1.40;;
23058;SDS011;30585;51.502;7.218;2022-07-29T05:41:14;7.15;;;1.75;;
23058;SDS011;30585;51.502;7.218;2022-07-29T05:43:46;6.72;;;1.83;;
23058;SDS011;30585;51.502;7.218;2022-07-29T05:46:14;2.43;;;1.77;;
23058;SDS011;30585;51.502;7.218;2022-07-29T05:48:42;3.60;;;1.60;;
23058;SDS011;30585;51.502;7.218;2022-07-29T05:51:10;1.52;;;1.42;;
23058;SDS011;30585;51.502;7.218;2022-07-29T05:53:38;3.27;;;1.60;;
23058;SDS011;30585;51.502;7.218;2022-07-29T05:56:06;1.50;;;1.30;;
23058;SDS011;30585;51.502;7.218;2022-07-29T05:58:34;3.90;;;1.80;;
23058;SDS011;30585;51.502;7.218;2022-07-29T06:01:04;2.20;;;1.65;;
23058;SDS011;30585;51.502;7.218;2022-07-29T06:03:32;3.88;;;1.92;;
23058;SDS011;30585;51.502;7.218;2022-07-29T06:06:00;4.80;;;1.80;;
23058;SDS011;30585;51.502;7.218;2022-07-29T06:08:28;2.83;;;1.60;;
23058;SDS011;30585;51.502;7.218;2022-07-29T06:10:56;3.83;;;1.55;;
23058;SDS011;30585;51.502;7.218;2022-07-29T06:13:24;4.80;;;2.17;;
23058;SDS011;30585;51.502;7.218;2022-07-29T06:15:52;3.20;;;1.70;;
23058;SDS011;30585;51.502;7.218;2022-07-29T06:18:22;3.78;;;1.90;;
23058;SDS011;30585;51.502;7.218;2022-07-29T06:20:50;4.73;;;2.10;;
23058;SDS011;30585;51.502;7.218;2022-07-29T06:23:18;6.93;;;2.03;;
23058;SDS011;30585;51.502;7.218;2022-07-29T06:25:46;3.70;;;1.93;;
23058;SDS011;30585;51.502;7.218;2022-07-29T06:28:14;3.70;;;1.70;;
23058;SDS011;30585;51.502;7.218;2022-07-29T06:30:42;8.10;;;1.90;;
23058;SDS011;30585;51.502;7.218;2022-07-29T06:33:15;2.58;;;1.70;;
23058;SDS011;30585;51.502;7.218;2022-07-29T06:35:45;3.38;;;1.77;;
23058;SDS011;30585;51.502;7.218;2022-07-29T06:38:20;3.30;;;1.87;;
23058;SDS011;30585;51.502;7.218;2022-07-29T06:40:59;3.53;;;1.65;;
23058;SDS011;30585;51.502;7.218;2022-07-29T06:43:29;5.03;;;1.60;;
23058;SDS011;30585;51.502;7.218;2022-07-29T06:46:00;2.93;;;1.40;;
23058;SDS011;30585;51.502;7.218;2022-07-29T06:48:29;2.47;;;1.77;;
23058;SDS011;30585;51.502;7.218;2022-07-29T06:50:59;5.30;;;1.60;;
23058;SDS011;30585;51.502;7.218;2022-07-29T06:53:28;4.70;;;1.47;;
23058;SDS011;30585;51.502;7.218;2022-07-29T06:55:56;1.50;;;1.20;;
23058;SDS011;30585;51.502;7.218;2022-07-29T06:58:25;5.72;;;1.83;;
23058;SDS011;30585;51.502;7.218;2022-07-29T07:00:54;4.22;;;1.60;;
23058;SDS011;30585;51.502;7.218;2022-07-29T07:03:22;5.68;;;1.52;;
23058;SDS011;30585;51.502;7.218;2022-07-29T07:05:51;4.50;;;1.80;;
23058;SDS011;30585;51.502;7.218;2022-07-29T07:08:21;2.08;;;1.58;;
23058;SDS011;30585;51.502;7.218;2022-07-29T07:10:50;5.25;;;1.65;;
23058;SDS011;30585;51.502;7.218;2022-07-29T07:13:18;3.33;;;1.77;;
23058;SDS011;30585;51.502;7.218;2022-07-29T07:15:46;3.55;;;1.67;;
23058;SDS011;30585;51.502;7.218;2022-07-29T07:18:14;2.22;;;1.48;;
23058;SDS011;30585;51.502;7.218;2022-07-29T07:20:43;2.90;;;1.65;;
23058;SDS011;30585;51.502;7.218;2022-07-29T07:23:11;4.55;;;1.70;;
23058;SDS011;30585;51.502;7.218;2022-07-29T07:25:41;1.67;;;1.40;;
23058;SDS011;30585;51.502;7.218;2022-07-29T07:28:10;4.63;;;1.50;;
23058;SDS011;30585;51.502;7.218;2022-07-29T07:30:39;5.60;;;1.65;;
23058;SDS011;30585;51.502;7.218;2022-07-29T07:33:07;2.90;;;1.42;;
23058;SDS011;30585;51.502;7.218;2022-07-29T07:35:36;5.57;;;1.52;;
23058;SDS011;30585;51.502;7.218;2022-07-29T07:38:04;4.75;;;1.52;;
23058;SDS011;30585;51.502;7.218;2022-07-29T07:40:33;4.13;;;1.95;;
23058;SDS011;30585;51.502;7.218;2022-07-29T07:43:03;2.80;;;1.35;;
23058;SDS011;30585;51.502;7.218;2022-07-29T07:45:31;2.75;;;1.40;;
23058;SDS011;30585;51.502;7.218;2022-07-29T07:48:00;3.92;;;1.52;;
23058;SDS011;30585;51.502;7.218;2022-07-29T07:50:28;4.50;;;1.63;;
23058;SDS011;30585;51.502;7.218;2022-07-29T07:52:56;5.05;;;1.80;;
23058;SDS011;30585;51.502;7.218;2022-07-29T07:55:25;3.58;;;1.77;;
23058;SDS011;30585;51.502;7.218;2022-07-29T07:57:53;2.00;;;1.33;;
23058;SDS011;30585;51.502;7.218;2022-07-29T08:00:23;4.85;;;1.83;;
23058;SDS011;30585;51.502;7.218;2022-07-29T08:02:51;2.00;;;1.35;;
23058;SDS011;30585;51.502;7.218;2022-07-29T08:05:19;3.80;;;1.65;;
23058;SDS011;30585;51.502;7.218;2022-07-29T08:07:47;2.63;;;1.70;;
23058;SDS011;30585;51.502;7.218;2022-07-29T08:10:16;3.88;;;2.08;;
23058;SDS011;30585;51.502;7.218;2022-07-29T08:13:06;6.25;;;1.65;;
23058;SDS011;30585;51.502;7.218;2022-07-29T08:15:36;2.15;;;1.52;;
23058;SDS011;30585;51.502;7.218;2022-07-29T08:18:07;3.75;;;1.52;;
23058;SDS011;30585;51.502;7.218;2022-07-29T08:20:35;3.28;;;1.60;;
23058;SDS011;30585;51.502;7.218;2022-07-29T08:23:05;3.22;;;1.83;;
23058;SDS011;30585;51.502;7.218;2022-07-29T08:25:36;4.70;;;1.83;;
23058;SDS011;30585;51.502;7.218;2022-07-29T08:28:05;5.30;;;2.03;;
23058;SDS011;30585;51.502;7.218;2022-07-29T08:30:33;3.15;;;1.80;;
23058;SDS011;30585;51.502;7.218;2022-07-29T08:33:03;6.07;;;2.05;;
23058;SDS011;30585;51.502;7.218;2022-07-29T08:35:30;3.35;;;2.10;;
23058;SDS011;30585;51.502;7.218;2022-07-29T08:38:01;4.53;;;2.13;;
23058;SDS011;30585;51.502;7.218;2022-07-29T08:40:30;4.63;;;2.00;;
23058;SDS011;30585;51.502;7.218;2022-07-29T08:42:59;7.13;;;1.90;;
23058;SDS011;30585;51.502;7.218;2022-07-29T08:45:34;4.05;;;2.10;;
23058;SDS011;30585;51.502;7.218;2022-07-29T08:48:18;4.28;;;1.98;;
23058;SDS011;30585;51.502;7.218;2022-07-29T08:50:48;4.40;;;2.13;;
23058;SDS011;30585;51.502;7.218;2022-07-29T08:53:21;3.75;;;2.50;;
23058;SDS011;30585;51.502;7.218;2022-07-29T08:55:53;2.55;;;2.08;;
23058;SDS011;30585;51.502;7.218;2022-07-29T08:58:22;4.25;;;2.47;;
23058;SDS011;30585;51.502;7.218;2022-07-29T09:00:53;6.15;;;2.92;;
23058;SDS011;30585;51.502;7.218;2022-07-29T09:03:25;5.05;;;2.65;;
23058;SDS011;30585;51.502;7.218;2022-07-29T09:05:57;3.67;;;2.45;;
23058;SDS011;30585;51.502;7.218;2022-07-29T09:08:26;6.30;;;2.85;;
23058;SDS011;30585;51.502;7.218;2022-07-29T09:10:55;4.78;;;2.50;;
23058;SDS011;30585;51.502;7.218;2022-07-29T09:13:24;4.80;;;2.53;;
23058;SDS011;30585;51.502;7.218;2022-07-29T09:15:52;5.53;;;2.15;;
23058;SDS011;30585;51.502;7.218;2022-07-29T09:18:37;2.75;;;2.28;;
23058;SDS011;30585;51.502;7.218;2022-07-29T09:21:07;3.85;;;2.33;;
23058;SDS011;30585;51.502;7.218;2022-07-29T09:24:00;3.70;;;2.50;;
23058;SDS011;30585;51.502;7.218;2022-07-29T09:26:34;5.15;;;2.42;;
23058;SDS011;30585;51.502;7.218;2022-07-29T09:29:10;3.22;;;2.17;;
23058;SDS011;30585;51.502;7.218;2022-07-29T09:31:40;7.90;;;2.78;;
23058;SDS011;30585;51.502;7.218;2022-07-29T09:34:12;6.03;;;3.35;;
23058;SDS011;30585;51.502;7.218;2022-07-29T09:36:43;9.55;;;3.00;;
23058;SDS011;30585;51.502;7.218;2022-07-29T09:39:13;4.78;;;2.55;;
23058;SDS011;30585;51.502;7.218;2022-07-29T09:41:43;7.25;;;2.83;;
23058;SDS011;30585;51.502;7.218;2022-07-29T09:44:16;3.95;;;3.17;;
23058;SDS011;30585;51.502;7.218;2022-07-29T09:46:57;12.65;;;2.92;;
23058;SDS011;30585;51.502;7.218;2022-07-29T09:49:33;5.18;;;2.80;;
23058;SDS011;30585;51.502;7.218;2022-07-29T09:52:04;7.13;;;2.47;;
23058;SDS011;30585;51.502;7.218;2022-07-29T09:54:35;8.57;;;2.63;;
23058;SDS011;30585;51.502;7.218;2022-07-29T09:57:07;3.38;;;2.22;;
23058;SDS011;30585;51.502;7.218;2022-07-29T09:59:38;5.40;;;2.53;;
23058;SDS011;30585;51.502;7.218;2022-07-29T10:02:15;4.05;;;2.45;;
23058;SDS011;30585;51.502;7.218;2022-07-29T10:04:50;2.97;;;1.90;;
23058;SDS011;30585;51.502;7.218;2022-07-29T10:07:18;5.55;;;2.75;;
23058;SDS011;30585;51.502;7.218;2022-07-29T10:09:49;4.25;;;2.22;;
23058;SDS011;30585;51.502;7.218;2022-07-29T10:12:20;3.35;;;2.17;;
23058;SDS011;30585;51.502;7.218;2022-07-29T10:14:50;5.47;;;2.38;;
23058;SDS011;30585;51.502;7.218;2022-07-29T10:17:18;5.40;;;2.40;;
23058;SDS011;30585;51.502;7.218;2022-07-29T10:19:48;4.28;;;2.25;;
23058;SDS011;30585;51.502;7.218;2022-07-29T10:22:18;6.13;;;2.70;;
23058;SDS011;30585;51.502;7.218;2022-07-29T10:25:07;5.05;;;2.97;;
23058;SDS011;30585;51.502;7.218;2022-07-29T10:27:36;4.00;;;2.55;;
23058;SDS011;30585;51.502;7.218;2022-07-29T10:30:05;6.95;;;2.25;;
23058;SDS011;30585;51.502;7.218;2022-07-29T10:32:37;4.00;;;2.47;;
23058;SDS011;30585;51.502;7.218;2022-07-29T10:35:21;4.40;;;2.30;;
23058;SDS011;30585;51.502;7.218;2022-07-29T10:38:15;6.30;;;2.53;;
23058;SDS011;30585;51.502;7.218;2022-07-29T10:40:57;3.42;;;2.45;;
23058;SDS011;30585;51.502;7.218;2022-07-29T10:44:12;4.07;;;2.25;;
23058;SDS011;30585;51.502;7.218;2022-07-29T10:46:45;4.82;;;2.63;;
23058;SDS011;30585;51.502;7.218;2022-07-29T10:49:14;3.42;;;2.08;;
23058;SDS011;30585;51.502;7.218;2022-07-29T10:51:53;3.53;;;2.28;;
23058;SDS011;30585;51.502;7.218;2022-07-29T10:57:25;4.28;;;2.40;;
23058;SDS011;30585;51.502;7.218;2022-07-29T11:00:28;3.20;;;1.90;;
23058;SDS011;30585;51.502;7.218;2022-07-29T11:02:59;4.80;;;2.35;;
23058;SDS011;30585;51.502;7.218;2022-07-29T11:05:51;5.28;;;2.70;;
23058;SDS011;30585;51.502;7.218;2022-07-29T11:08:25;4.93;;;2.83;;
23058;SDS011;30585;51.502;7.218;2022-07-29T11:14:04;3.65;;;2.10;;
23058;SDS011;30585;51.502;7.218;2022-07-29T11:19:49;4.10;;;2.80;;
23058;SDS011;30585;51.502;7.218;2022-07-29T11:22:31;4.85;;;2.70;;
23058;SDS011;30585;51.502;7.218;2022-07-29T11:25:13;5.20;;;2.75;;
23058;SDS011;30585;51.502;7.218;2022-07-29T11:28:08;5.97;;;3.05;;
23058;SDS011;30585;51.502;7.218;2022-07-29T11:30:52;8.68;;;3.40;;
23058;SDS011;30585;51.502;7.218;2022-07-29T11:33:29;4.45;;;2.90;;
23058;SDS011;30585;51.502;7.218;2022-07-29T11:36:18;5.00;;;3.00;;
23058;SDS011;30585;51.502;7.218;2022-07-29T11:38:53;9.50;;;2.60;;
23058;SDS011;30585;51.502;7.218;2022-07-29T11:45:10;5.38;;;2.17;;
23058;SDS011;30585;51.502;7.218;2022-07-29T11:48:01;7.55;;;2.20;;
23058;SDS011;30585;51.502;7.218;2022-07-29T11:50:52;4.47;;;2.55;;
23058;SDS011;30585;51.502;7.218;2022-07-29T11:53:23;4.82;;;2.22;;
23058;SDS011;30585;51.502;7.218;2022-07-29T11:55:57;4.20;;;2.35;;
23058;SDS011;30585;51.502;7.218;2022-07-29T11:58:28;2.78;;;1.63;;
23058;SDS011;30585;51.502;7.218;2022-07-29T12:00:57;5.15;;;2.10;;
23058;SDS011;30585;51.502;7.218;2022-07-29T12:03:31;7.78;;;2.70;;
23058;SDS011;30585;51.502;7.218;2022-07-29T12:06:11;5.30;;;2.13;;
23058;SDS011;30585;51.502;7.218;2022-07-29T12:08:43;4.43;;;2.47;;
23058;SDS011;30585;51.502;7.218;2022-07-29T12:11:16;4.07;;;1.90;;
23058;SDS011;30585;51.502;7.218;2022-07-29T12:13:47;4.43;;;2.40;;
23058;SDS011;30585;51.502;7.218;2022-07-29T12:16:15;3.22;;;1.80;;
23058;SDS011;30585;51.502;7.218;2022-07-29T12:18:56;4.03;;;2.37;;
23058;SDS011;30585;51.502;7.218;2022-07-29T12:21:25;3.75;;;2.03;;
23058;SDS011;30585;51.502;7.218;2022-07-29T12:23:54;2.80;;;1.98;;
23058;SDS011;30585;51.502;7.218;2022-07-29T12:26:31;3.50;;;2.10;;
23058;SDS011;30585;51.502;7.218;2022-07-29T12:29:01;7.82;;;2.50;;
23058;SDS011;30585;51.502;7.218;2022-07-29T12:31:36;3.20;;;1.90;;
23058;SDS011;30585;51.502;7.218;2022-07-29T12:34:12;2.55;;;1.95;;
23058;SDS011;30585;51.502;7.218;2022-07-29T12:36:41;3.17;;;1.98;;
23058;SDS011;30585;51.502;7.218;2022-07-29T12:39:10;7.55;;;2.55;;
23058;SDS011;30585;51.502;7.218;2022-07-29T12:41:38;5.63;;;2.50;;
23058;SDS011;30585;51.502;7.218;2022-07-29T12:44:06;4.57;;;1.90;;
23058;SDS011;30585;51.502;7.218;2022-07-29T12:46:34;4.55;;;2.17;;
23058;SDS011;30585;51.502;7.218;2022-07-29T12:49:04;3.40;;;2.15;;
23058;SDS011;30585;51.502;7.218;2022-07-29T12:51:35;3.92;;;2.30;;
23058;SDS011;30585;51.502;7.218;2022-07-29T12:54:07;5.00;;;2.35;;
23058;SDS011;30585;51.502;7.218;2022-07-29T12:56:37;4.13;;;2.47;;
23058;SDS011;30585;51.502;7.218;2022-07-29T12:59:13;3.30;;;2.17;;
23058;SDS011;30585;51.502;7.218;2022-07-29T13:01:43;5.32;;;2.30;;
23058;SDS011;30585;51.502;7.218;2022-07-29T13:04:23;4.78;;;2.20;;
23058;SDS011;30585;51.502;7.218;2022-07-29T13:06:59;3.90;;;2.35;;
23058;SDS011;30585;51.502;7.218;2022-07-29T13:09:36;5.75;;;2.00;;
23058;SDS011;30585;51.502;7.218;2022-07-29T13:12:06;4.60;;;2.08;;
23058;SDS011;30585;51.502;7.218;2022-07-29T13:14:37;4.97;;;2.35;;
23058;SDS011;30585;51.502;7.218;2022-07-29T13:17:06;4.78;;;2.28;;
23058;SDS011;30585;51.502;7.218;2022-07-29T13:19:36;3.03;;;2.00;;
23058;SDS011;30585;51.502;7.218;2022-07-29T13:22:08;4.05;;;2.10;;
23058;SDS011;30585;51.502;7.218;2022-07-29T13:24:48;2.75;;;1.70;;
23058;SDS011;30585;51.502;7.218;2022-07-29T13:27:17;5.35;;;2.08;;
23058;SDS011;30585;51.502;7.218;2022-07-29T13:29:46;3.25;;;1.80;;
23058;SDS011;30585;51.502;7.218;2022-07-29T13:32:14;5.78;;;1.80;;
23058;SDS011;30585;51.502;7.218;2022-07-29T13:34:43;5.07;;;1.83;;
23058;SDS011;30585;51.502;7.218;2022-07-29T13:37:13;2.75;;;2.05;;
23058;SDS011;30585;51.502;7.218;2022-07-29T13:39:43;4.75;;;1.80;;
23058;SDS011;30585;51.502;7.218;2022-07-29T13:42:18;4.30;;;2.25;;
23058;SDS011;30585;51.502;7.218;2022-07-29T13:44:46;2.83;;;2.10;;
23058;SDS011;30585;51.502;7.218;2022-07-29T13:47:14;7.80;;;1.92;;
23058;SDS011;30585;51.502;7.218;2022-07-29T13:49:43;2.05;;;1.70;;
23058;SDS011;30585;51.502;7.218;2022-07-29T13:52:11;4.97;;;1.90;;
23058;SDS011;30585;51.502;7.218;2022-07-29T13:54:41;3.72;;;2.00;;
23058;SDS011;30585;51.502;7.218;2022-07-29T13:57:09;5.07;;;2.00;;
23058;SDS011;30585;51.502;7.218;2022-07-29T13:59:38;2.70;;;2.00;;
23058;SDS011;30585;51.502;7.218;2022-07-29T14:02:06;3.63;;;2.10;;
23058;SDS011;30585;51.502;7.218;2022-07-29T14:04:34;7.32;;;1.90;;
23058;SDS011;30585;51.502;7.218;2022-07-29T14:07:05;6.88;;;1.92;;
23058;SDS011;30585;51.502;7.218;2022-07-29T14:09:33;3.60;;;1.67;;
23058;SDS011;30585;51.502;7.218;2022-07-29T14:12:08;5.50;;;2.05;;
23058;SDS011;30585;51.502;7.218;2022-07-29T14:14:36;3.22;;;2.30;;
23058;SDS011;30585;51.502;7.218;2022-07-29T14:17:04;2.83;;;1.65;;
23058;SDS011;30585;51.502;7.218;2022-07-29T14:19:33;2.45;;;1.88;;
23058;SDS011;30585;51.502;7.218;2022-07-29T14:22:04;3.92;;;1.90;;
23058;SDS011;30585;51.502;7.218;2022-07-29T14:24:34;4.82;;;2.10;;
23058;SDS011;30585;51.502;7.218;2022-07-29T14:27:02;5.43;;;1.92;;
23058;SDS011;30585;51.502;7.218;2022-07-29T14:29:32;2.13;;;1.92;;
23058;SDS011;30585;51.502;7.218;2022-07-29T14:32:04;4.05;;;2.08;;
23058;SDS011;30585;51.502;7.218;2022-07-29T14:34:32;4.00;;;2.05;;
23058;SDS011;30585;51.502;7.218;2022-07-29T14:37:00;5.13;;;1.90;;
23058;SDS011;30585;51.502;7.218;2022-07-29T14:39:29;3.38;;;1.90;;
23058;SDS011;30585;51.502;7.218;2022-07-29T14:41:57;2.05;;;1.67;;
23058;SDS011;30585;51.502;7.218;2022-07-29T14:44:26;3.25;;;1.90;;
23058;SDS011;30585;51.502;7.218;2022-07-29T14:46:59;6.10;;;1.92;;
23058;SDS011;30585;51.502;7.218;2022-07-29T14:49:33;3.28;;;1.60;;
23058;SDS011;30585;51.502;7.218;2022-07-29T14:52:01;3.67;;;1.92;;
23058;SDS011;30585;51.502;7.218;2022-07-29T14:54:30;3.22;;;1.95;;
23058;SDS011;30585;51.502;7.218;2022-07-29T14:56:58;2.35;;;1.80;;
23058;SDS011;30585;51.502;7.218;2022-07-29T14:59:26;2.33;;;1.77;;
23058;SDS011;30585;51.502;7.218;2022-07-29T15:01:54;4.40;;;1.85;;
23058;SDS011;30585;51.502;7.218;2022-07-29T15:04:24;3.38;;;2.00;;
23058;SDS011;30585;51.502;7.218;2022-07-29T15:06:52;5.85;;;2.28;;
23058;SDS011;30585;51.502;7.218;2022-07-29T15:09:21;2.72;;;1.63;;
23058;SDS011;30585;51.502;7.218;2022-07-29T15:11:49;2.55;;;1.65;;
23058;SDS011;30585;51.502;7.218;2022-07-29T15:14:17;5.65;;;1.70;;
23058;SDS011;30585;51.502;7.218;2022-07-29T15:16:45;4.65;;;1.80;;
23058;SDS011;30585;51.502;7.218;2022-07-29T15:19:13;3.88;;;1.63;;
23058;SDS011;30585;51.502;7.218;2022-07-29T15:21:43;4.53;;;1.60;;
23058;SDS011;30585;51.502;7.218;2022-07-29T15:24:14;4.10;;;2.03;;
23058;SDS011;30585;51.502;7.218;2022-07-29T15:26:42;3.35;;;2.10;;